Time;durP1;ratioP1;P1;durP2;ratioP2;P2;SDS_P1;SDS_P2;PMS_P1;PMS_P2;Temp;Humidity;BMP_temperature;BMP_pressure;BME280_temperature;BME280_humidity;BME280_pressure;Samples;Min_cycle;Max_cycle;Signal;HPM_P1;HPM_P2
2023/01/21 00:01:09;;;;;;;15.47;11.73;;;;;;;;;;5037358;28;20783;-89
2023/01/21 00:03:35;;;;;;;13.07;10.57;;;;;;;;;;5035985;28;20425;-89
2023/01/21 00:06:01;;;;;;;15.63;11.87;;;;;;;;;;5029704;28;20474;-89
2023/01/21 00:08:27;;;;;;;16.03;12.77;;;;;;;;;;5037914;28;20990;-90
2023/01/21 00:10:53;;;;;;;16.07;11.37;;;;;;;;;;5037147;28;20488;-88
2023/01/21 00:13:20;;;;;;;14.27;11.20;;;;;;;;;;5038457;28;20421;-88
2023/01/21 00:15:46;;;;;;;17.07;12.20;;;;;;;;;;5037344;28;20543;-89
2023/01/21 00:18:12;;;;;;;14.37;11.47;;;;;;;;;;5038375;28;20460;-89
2023/01/21 00:20:38;;;;;;;14.70;11.93;;;;;;;;;;5037874;28;20464;-89
2023/01/21 00:23:04;;;;;;;15.57;11.47;;;;;;;;;;5039216;28;20474;-89
2023/01/21 00:25:30;;;;;;;15.63;12.40;;;;;;;;;;5032146;28;20453;-89
2023/01/21 00:27:58;;;;;;;16.37;11.67;;;;;;;;;;5036986;28;20691;-89
2023/01/21 00:30:25;;;;;;;14.27;11.00;;;;;;;;;;5052951;28;20435;-88
2023/01/21 00:32:51;;;;;;;14.37;11.13;;;;;;;;;;5036632;28;20475;-89
2023/01/21 00:35:17;;;;;;;14.03;11.67;;;;;;;;;;5038465;28;20428;-89
2023/01/21 00:37:43;;;;;;;13.70;11.30;;;;;;;;;;5039240;28;20808;-89
2023/01/21 00:40:10;;;;;;;13.87;11.00;;;;;;;;;;5033297;28;20427;-89
2023/01/21 00:42:36;;;;;;;16.13;12.00;;;;;;;;;;5051897;28;20468;-89
2023/01/21 00:45:02;;;;;;;15.13;11.47;;;;;;;;;;5033972;28;20868;-89
2023/01/21 00:47:28;;;;;;;13.97;11.27;;;;;;;;;;5041676;28;20431;-89
2023/01/21 00:49:54;;;;;;;15.97;12.63;;;;;;;;;;5041032;28;20433;-89
2023/01/21 00:52:20;;;;;;;17.30;13.07;;;;;;;;;;5037698;28;20476;-89
2023/01/21 00:54:46;;;;;;;15.37;11.77;;;;;;;;;;5037819;28;20427;-88
2023/01/21 00:57:12;;;;;;;14.47;11.83;;;;;;;;;;5038425;28;20471;-89
2023/01/21 00:59:39;;;;;;;16.90;12.60;;;;;;;;;;5035581;28;20435;-89
2023/01/21 01:02:05;;;;;;;15.43;11.93;;;;;;;;;;5036023;28;20782;-89
2023/01/21 01:04:31;;;;;;;16.33;12.13;;;;;;;;;;5037400;28;20428;-89
2023/01/21 01:06:57;;;;;;;15.63;12.80;;;;;;;;;;5032978;28;20470;-89
2023/01/21 01:09:23;;;;;;;15.63;11.73;;;;;;;;;;5040973;28;20441;-89
2023/01/21 01:11:49;;;;;;;16.73;12.27;;;;;;;;;;5028385;28;20448;-89
2023/01/21 01:14:15;;;;;;;16.47;13.00;;;;;;;;;;5036303;28;20433;-90
2023/01/21 01:16:41;;;;;;;16.30;11.77;;;;;;;;;;5036243;28;20440;-89
2023/01/21 01:19:11;;;;;;;17.10;13.20;;;;;;;;;;5037526;28;20421;-89
2023/01/21 01:21:38;;;;;;;16.87;11.80;;;;;;;;;;5037128;28;20428;-88
2023/01/21 01:24:05;;;;;;;17.40;12.27;;;;;;;;;;5032792;28;20417;-89
2023/01/21 01:26:31;;;;;;;14.60;11.93;;;;;;;;;;5046422;28;20504;-88
2023/01/21 01:28:57;;;;;;;16.30;12.13;;;;;;;;;;5036073;28;20488;-89
2023/01/21 01:31:23;;;;;;;15.27;11.67;;;;;;;;;;5036416;28;20453;-88
2023/01/21 01:33:49;;;;;;;14.17;11.63;;;;;;;;;;5037479;28;20436;-89
2023/01/21 01:36:16;;;;;;;16.30;12.13;;;;;;;;;;5037253;28;20649;-89
2023/01/21 01:38:43;;;;;;;17.53;12.50;;;;;;;;;;5037987;28;20983;-89
2023/01/21 01:41:15;;;;;;;14.23;12.00;;;;;;;;;;5036547;28;20430;-89
2023/01/21 01:43:51;;;;;;;13.53;11.13;;;;;;;;;;5019857;28;20418;-89
2023/01/21 01:46:18;;;;;;;16.70;11.47;;;;;;;;;;5035233;28;20427;-89
2023/01/21 01:48:45;;;;;;;15.57;12.63;;;;;;;;;;5037953;28;20428;-89
2023/01/21 01:51:13;;;;;;;15.67;12.33;;;;;;;;;;5036291;28;20431;-89
2023/01/21 01:53:41;;;;;;;15.40;12.10;;;;;;;;;;5035288;28;20445;-89
2023/01/21 01:56:07;;;;;;;15.73;12.17;;;;;;;;;;5035718;28;20424;-89
2023/01/21 01:58:33;;;;;;;17.37;13.13;;;;;;;;;;5039025;28;20861;-89
2023/01/21 02:00:59;;;;;;;14.83;11.50;;;;;;;;;;5034856;28;20429;-89
2023/01/21 02:03:45;;;;;;;15.10;12.03;;;;;;;;;;5038807;28;20396;-89
2023/01/21 02:06:15;;;;;;;15.17;11.57;;;;;;;;;;5026015;28;21164;-89
2023/01/21 02:08:42;;;;;;;16.77;12.43;;;;;;;;;;5038396;28;20428;-89
2023/01/21 02:11:12;;;;;;;14.20;11.70;;;;;;;;;;5025990;28;20441;-89
2023/01/21 02:13:40;;;;;;;16.63;12.43;;;;;;;;;;5035519;28;20427;-89
2023/01/21 02:16:41;;;;;;;15.53;12.07;;;;;;;;;;5049511;28;20516;-89
2023/01/21 02:19:20;;;;;;;17.60;12.43;;;;;;;;;;4976356;28;20423;-88
2023/01/21 02:22:02;;;;;;;16.33;11.77;;;;;;;;;;5044509;28;20439;-89
2023/01/21 02:24:31;;;;;;;15.10;11.37;;;;;;;;;;5029843;28;20425;-90
2023/01/21 02:27:16;;;;;;;16.07;12.17;;;;;;;;;;5031520;28;20481;-89
2023/01/21 02:30:09;;;;;;;15.37;11.23;;;;;;;;;;5032954;28;20424;-89
2023/01/21 02:32:53;;;;;;;15.83;11.57;;;;;;;;;;5033081;28;20465;-89
2023/01/21 02:35:24;;;;;;;17.93;13.23;;;;;;;;;;5031288;28;20439;-90
2023/01/21 02:37:56;;;;;;;14.80;11.10;;;;;;;;;;5034405;28;20467;-88
2023/01/21 02:40:25;;;;;;;15.23;12.70;;;;;;;;;;5034857;28;20436;-89
2023/01/21 02:43:01;;;;;;;16.90;12.13;;;;;;;;;;5033899;28;20632;-89
2023/01/21 02:45:33;;;;;;;15.67;12.53;;;;;;;;;;5033910;28;20432;-89
2023/01/21 02:48:34;;;;;;;14.93;11.30;;;;;;;;;;5035294;28;20432;-88
2023/01/21 02:51:01;;;;;;;14.53;11.57;;;;;;;;;;4939279;29;20431;-89
2023/01/21 02:53:34;;;;;;;16.43;12.13;;;;;;;;;;5018871;28;21169;-89
2023/01/21 02:56:21;;;;;;;15.87;12.00;;;;;;;;;;5031786;28;20428;-90
2023/01/21 02:58:50;;;;;;;14.10;11.57;;;;;;;;;;5037040;28;21105;-89
2023/01/21 03:01:25;;;;;;;16.43;11.80;;;;;;;;;;5037810;28;20432;-89
2023/01/21 03:03:54;;;;;;;15.57;11.77;;;;;;;;;;5041415;28;20432;-88
2023/01/21 03:06:36;;;;;;;14.23;11.57;;;;;;;;;;5039274;28;20428;-89
2023/01/21 03:09:37;;;;;;;14.53;11.60;;;;;;;;;;5039953;28;20424;-89
2023/01/21 03:12:22;;;;;;;16.07;11.60;;;;;;;;;;4977680;28;20422;-89
2023/01/21 03:17:41;;;;;;;17.47;11.70;;;;;;;;;;5041003;28;20470;-89
2023/01/21 03:20:14;;;;;;;17.27;12.37;;;;;;;;;;5045232;28;20458;-90
2023/01/21 03:22:41;;;;;;;16.57;12.00;;;;;;;;;;5039677;28;20435;-89
2023/01/21 03:25:08;;;;;;;15.83;10.90;;;;;;;;;;5038652;28;20482;-90
2023/01/21 03:27:36;;;;;;;15.87;11.90;;;;;;;;;;5038001;28;20467;-89
2023/01/21 03:30:05;;;;;;;16.30;12.40;;;;;;;;;;5040567;28;20428;-88
2023/01/21 03:32:33;;;;;;;14.97;11.83;;;;;;;;;;5039023;28;20429;-90
2023/01/21 03:35:00;;;;;;;15.10;11.27;;;;;;;;;;5039541;28;20482;-89
2023/01/21 03:37:32;;;;;;;18.73;12.67;;;;;;;;;;5038359;28;20569;-89
2023/01/21 03:40:04;;;;;;;15.70;12.53;;;;;;;;;;5039554;28;20413;-89
2023/01/21 03:42:31;;;;;;;15.40;12.00;;;;;;;;;;5037231;28;20424;-88
2023/01/21 03:44:57;;;;;;;15.20;13.07;;;;;;;;;;5032444;28;20435;-89
2023/01/21 03:47:30;;;;;;;16.50;12.73;;;;;;;;;;5035218;28;20429;-88
2023/01/21 03:50:15;;;;;;;15.87;11.77;;;;;;;;;;5041100;28;20436;-88
2023/01/21 03:52:42;;;;;;;17.03;12.87;;;;;;;;;;5037004;28;20437;-90
2023/01/21 03:55:09;;;;;;;15.40;11.20;;;;;;;;;;5029359;28;20432;-89
2023/01/21 03:57:35;;;;;;;16.47;12.53;;;;;;;;;;5032227;28;20527;-89
2023/01/21 04:00:02;;;;;;;16.23;11.83;;;;;;;;;;5033058;28;20490;-89
2023/01/21 04:02:28;;;;;;;16.33;12.67;;;;;;;;;;5038492;28;20506;-89
2023/01/21 04:04:54;;;;;;;14.47;11.53;;;;;;;;;;5039186;28;20542;-90
2023/01/21 04:07:20;;;;;;;13.27;11.60;;;;;;;;;;5038187;28;20881;-89
2023/01/21 04:09:48;;;;;;;15.17;11.53;;;;;;;;;;5035678;28;20420;-89
2023/01/21 04:12:14;;;;;;;14.90;11.47;;;;;;;;;;5037712;28;20429;-89
2023/01/21 04:14:40;;;;;;;16.03;11.43;;;;;;;;;;5037634;28;20516;-89
2023/01/21 04:17:07;;;;;;;15.27;12.43;;;;;;;;;;5036318;28;20460;-89
2023/01/21 04:19:33;;;;;;;16.93;11.83;;;;;;;;;;5037130;28;20470;-89
2023/01/21 04:21:59;;;;;;;17.43;12.33;;;;;;;;;;5038674;28;20473;-88
2023/01/21 04:24:25;;;;;;;16.40;11.70;;;;;;;;;;5038132;28;20421;-89
2023/01/21 04:26:51;;;;;;;18.50;12.37;;;;;;;;;;5036662;28;21106;-89
2023/01/21 04:29:17;;;;;;;16.80;11.97;;;;;;;;;;5037956;28;20464;-88
2023/01/21 04:31:43;;;;;;;18.83;14.77;;;;;;;;;;5038737;28;20432;-89
2023/01/21 04:34:10;;;;;;;15.40;11.27;;;;;;;;;;5037887;28;20421;-89
2023/01/21 04:36:36;;;;;;;16.23;12.63;;;;;;;;;;5038256;28;20626;-89
2023/01/21 04:39:02;;;;;;;15.13;11.83;;;;;;;;;;5037837;28;20647;-89
2023/01/21 04:41:28;;;;;;;15.47;12.30;;;;;;;;;;5035948;28;20440;-89
2023/01/21 04:43:54;;;;;;;15.23;12.00;;;;;;;;;;5036634;28;20439;-89
2023/01/21 04:46:20;;;;;;;16.80;12.43;;;;;;;;;;5037547;28;20428;-89
2023/01/21 04:48:46;;;;;;;17.23;13.00;;;;;;;;;;5036897;28;21073;-89
2023/01/21 04:51:12;;;;;;;16.00;12.63;;;;;;;;;;5036832;28;20447;-89
2023/01/21 04:53:38;;;;;;;15.73;12.93;;;;;;;;;;5036195;28;20432;-89
2023/01/21 04:56:04;;;;;;;16.80;12.70;;;;;;;;;;5037289;28;20428;-89
2023/01/21 04:58:30;;;;;;;15.27;11.50;;;;;;;;;;5032864;28;20460;-89
2023/01/21 05:00:56;;;;;;;16.93;12.73;;;;;;;;;;5051812;28;20965;-89
2023/01/21 05:03:22;;;;;;;16.63;12.47;;;;;;;;;;5038513;28;20405;-89
2023/01/21 05:05:49;;;;;;;15.30;12.57;;;;;;;;;;5037413;28;20537;-89
2023/01/21 05:08:15;;;;;;;14.70;11.63;;;;;;;;;;5033756;28;20535;-89
2023/01/21 05:10:41;;;;;;;15.73;11.90;;;;;;;;;;5017635;28;20413;-89
2023/01/21 05:13:07;;;;;;;17.97;13.00;;;;;;;;;;5017913;28;20409;-89
2023/01/21 05:15:33;;;;;;;15.63;12.23;;;;;;;;;;5033551;28;20428;-87
2023/01/21 05:17:59;;;;;;;16.17;12.40;;;;;;;;;;5033907;28;20465;-89
2023/01/21 05:20:25;;;;;;;16.40;12.40;;;;;;;;;;5037208;28;20411;-88
2023/01/21 05:22:51;;;;;;;17.83;12.97;;;;;;;;;;5037706;28;20393;-89
2023/01/21 05:25:17;;;;;;;16.10;12.77;;;;;;;;;;5036784;28;20490;-89
2023/01/21 05:27:43;;;;;;;16.73;12.77;;;;;;;;;;5035861;28;20459;-89
2023/01/21 05:30:10;;;;;;;15.50;11.57;;;;;;;;;;5037134;28;20487;-89
2023/01/21 05:32:36;;;;;;;15.00;12.00;;;;;;;;;;5037610;28;20655;-89
2023/01/21 05:35:03;;;;;;;17.53;13.63;;;;;;;;;;5036636;28;20435;-88
2023/01/21 05:37:29;;;;;;;16.60;11.83;;;;;;;;;;5036560;28;20500;-89
2023/01/21 05:39:55;;;;;;;16.90;12.67;;;;;;;;;;5036071;28;20440;-88
2023/01/21 05:42:21;;;;;;;16.83;12.73;;;;;;;;;;5036534;28;20435;-89
2023/01/21 05:44:47;;;;;;;15.73;12.30;;;;;;;;;;5037914;28;20519;-89
2023/01/21 05:47:13;;;;;;;15.20;12.17;;;;;;;;;;5038363;28;20439;-89
2023/01/21 05:49:39;;;;;;;16.67;12.87;;;;;;;;;;5038464;28;20420;-89
2023/01/21 05:52:05;;;;;;;16.00;12.40;;;;;;;;;;5038555;28;20428;-89
2023/01/21 05:54:32;;;;;;;17.50;11.90;;;;;;;;;;5038113;28;20435;-89
2023/01/21 05:56:58;;;;;;;16.37;12.13;;;;;;;;;;5038829;28;20457;-89
2023/01/21 05:59:24;;;;;;;17.83;12.43;;;;;;;;;;5036047;28;20460;-89
2023/01/21 06:01:50;;;;;;;17.57;12.50;;;;;;;;;;5033409;28;20429;-89
2023/01/21 06:04:16;;;;;;;16.33;12.60;;;;;;;;;;5035710;28;20431;-89
2023/01/21 06:06:42;;;;;;;16.43;12.27;;;;;;;;;;5038363;28;20437;-89
2023/01/21 06:09:08;;;;;;;20.33;12.80;;;;;;;;;;5037300;28;20424;-89
2023/01/21 06:11:34;;;;;;;16.60;12.50;;;;;;;;;;5037529;28;20424;-89
2023/01/21 06:14:00;;;;;;;16.10;13.20;;;;;;;;;;5035888;28;20516;-89
2023/01/21 06:16:26;;;;;;;14.47;11.43;;;;;;;;;;5037163;28;20463;-89
2023/01/21 06:18:52;;;;;;;18.53;11.83;;;;;;;;;;5035433;28;20486;-89
2023/01/21 06:21:18;;;;;;;18.60;13.87;;;;;;;;;;5035687;28;20440;-89
2023/01/21 06:23:44;;;;;;;16.23;12.17;;;;;;;;;;5037485;28;20405;-89
2023/01/21 06:26:10;;;;;;;16.87;12.23;;;;;;;;;;5036743;28;20460;-89
2023/01/21 06:28:36;;;;;;;15.70;12.20;;;;;;;;;;5036704;28;20601;-89
2023/01/21 06:31:03;;;;;;;16.20;12.20;;;;;;;;;;5051292;28;20486;-89
2023/01/21 06:33:29;;;;;;;15.47;11.97;;;;;;;;;;5036995;28;20412;-89
2023/01/21 06:35:55;;;;;;;17.73;12.67;;;;;;;;;;5036218;28;20436;-91
2023/01/21 06:38:21;;;;;;;17.97;12.60;;;;;;;;;;5038243;28;20460;-89
2023/01/21 06:40:47;;;;;;;18.67;12.43;;;;;;;;;;5036578;28;20420;-89
2023/01/21 06:43:13;;;;;;;16.00;12.43;;;;;;;;;;5033390;28;20418;-89
2023/01/21 06:45:39;;;;;;;15.23;12.03;;;;;;;;;;5050581;28;20417;-89
2023/01/21 06:48:05;;;;;;;16.63;12.13;;;;;;;;;;5036811;28;20495;-89
2023/01/21 06:50:31;;;;;;;16.27;11.67;;;;;;;;;;5038511;28;20393;-89
2023/01/21 06:52:57;;;;;;;17.43;13.03;;;;;;;;;;5036503;28;20427;-90
2023/01/21 06:55:23;;;;;;;21.17;12.83;;;;;;;;;;5035914;28;20432;-89
2023/01/21 06:57:49;;;;;;;17.13;12.47;;;;;;;;;;5034743;28;20869;-88
2023/01/21 07:00:17;;;;;;;15.43;11.60;;;;;;;;;;5036262;28;20847;-87
2023/01/21 07:02:43;;;;;;;15.47;12.03;;;;;;;;;;5036217;28;20432;-88
2023/01/21 07:05:09;;;;;;;16.70;12.27;;;;;;;;;;5036617;28;20421;-88
2023/01/21 07:07:35;;;;;;;15.60;12.30;;;;;;;;;;5038050;28;20496;-88
2023/01/21 07:10:01;;;;;;;18.17;12.83;;;;;;;;;;5036644;28;20416;-88
2023/01/21 07:12:27;;;;;;;18.47;12.87;;;;;;;;;;5036984;28;20455;-88
2023/01/21 07:14:53;;;;;;;17.57;13.03;;;;;;;;;;5036497;28;20540;-88
2023/01/21 07:17:20;;;;;;;17.03;13.70;;;;;;;;;;5035647;28;20878;-88
2023/01/21 07:19:46;;;;;;;16.80;13.20;;;;;;;;;;5033688;28;20959;-88
2023/01/21 07:22:12;;;;;;;18.33;13.83;;;;;;;;;;5034750;28;20951;-88
2023/01/21 07:24:38;;;;;;;17.50;12.17;;;;;;;;;;5034797;28;20886;-88
2023/01/21 07:27:05;;;;;;;18.50;12.93;;;;;;;;;;5053014;28;20468;-88
2023/01/21 07:29:31;;;;;;;17.07;13.27;;;;;;;;;;5036777;28;20439;-89
2023/01/21 07:31:57;;;;;;;20.00;13.27;;;;;;;;;;5034995;28;20434;-88
2023/01/21 07:34:23;;;;;;;20.17;13.33;;;;;;;;;;5048575;28;20444;-88
2023/01/21 07:36:49;;;;;;;18.33;13.93;;;;;;;;;;5054205;28;20429;-88
2023/01/21 07:39:15;;;;;;;18.90;14.20;;;;;;;;;;5036202;28;20420;-88
2023/01/21 07:41:41;;;;;;;21.20;14.40;;;;;;;;;;5036746;28;20413;-87
2023/01/21 07:44:08;;;;;;;20.70;14.80;;;;;;;;;;5038248;28;20427;-87
2023/01/21 07:46:34;;;;;;;20.97;14.87;;;;;;;;;;5032322;28;20420;-87
2023/01/21 07:49:00;;;;;;;17.80;13.43;;;;;;;;;;5036768;28;20432;-87
2023/01/21 07:51:26;;;;;;;18.87;14.80;;;;;;;;;;5037353;28;20440;-88
2023/01/21 07:53:57;;;;;;;19.37;14.63;;;;;;;;;;5038675;28;20412;-88
2023/01/21 07:56:25;;;;;;;19.80;13.80;;;;;;;;;;5031354;28;20444;-88
2023/01/21 07:58:51;;;;;;;20.23;15.33;;;;;;;;;;5052648;28;20456;-87
2023/01/21 08:01:17;;;;;;;17.40;13.63;;;;;;;;;;5039960;28;20440;-90
2023/01/21 08:03:43;;;;;;;21.97;15.00;;;;;;;;;;5036915;28;20432;-90
2023/01/21 08:06:10;;;;;;;19.50;14.00;;;;;;;;;;5034815;28;20428;-89
2023/01/21 08:08:36;;;;;;;21.20;14.33;;;;;;;;;;5038033;28;20408;-90
2023/01/21 08:11:02;;;;;;;20.40;14.93;;;;;;;;;;5036542;28;20431;-90
2023/01/21 08:13:31;;;;;;;18.40;13.17;;;;;;;;;;4965854;28;22467;-89
2023/01/21 08:15:57;;;;;;;18.53;14.00;;;;;;;;;;5035553;28;22099;-88
2023/01/21 08:18:23;;;;;;;18.67;13.83;;;;;;;;;;5038117;28;20457;-87
2023/01/21 08:20:56;;;;;;;22.07;13.63;;;;;;;;;;5037440;28;20467;-87
2023/01/21 08:23:23;;;;;;;20.80;13.80;;;;;;;;;;5034644;28;20457;-87
2023/01/21 08:25:49;;;;;;;19.53;13.67;;;;;;;;;;5052187;28;20476;-88
2023/01/21 08:28:15;;;;;;;19.90;13.20;;;;;;;;;;5035953;28;20456;-87
2023/01/21 08:30:41;;;;;;;18.87;13.50;;;;;;;;;;5036128;28;20435;-86
2023/01/21 08:33:10;;;;;;;20.30;13.67;;;;;;;;;;5036403;28;20483;-87
2023/01/21 08:35:36;;;;;;;19.17;13.17;;;;;;;;;;5035231;28;20511;-87
2023/01/21 08:38:02;;;;;;;20.53;13.67;;;;;;;;;;5033885;28;20587;-87
2023/01/21 08:40:29;;;;;;;18.63;13.47;;;;;;;;;;5038145;28;20412;-88
2023/01/21 08:43:01;;;;;;;18.07;13.20;;;;;;;;;;5031699;28;20529;-87
2023/01/21 08:45:28;;;;;;;18.13;13.20;;;;;;;;;;5034389;28;20432;-87
2023/01/21 08:47:57;;;;;;;20.03;13.23;;;;;;;;;;5037405;28;20433;-86
2023/01/21 08:50:23;;;;;;;22.73;14.67;;;;;;;;;;5037939;28;21141;-86
2023/01/21 08:52:50;;;;;;;22.17;14.57;;;;;;;;;;5038626;28;20534;-87
2023/01/21 08:55:16;;;;;;;22.33;15.07;;;;;;;;;;5034448;28;20542;-87
2023/01/21 08:57:42;;;;;;;18.07;13.57;;;;;;;;;;5034431;28;20488;-89
2023/01/21 09:00:09;;;;;;;18.83;13.00;;;;;;;;;;5039255;28;20458;-87
2023/01/21 09:02:38;;;;;;;22.40;14.47;;;;;;;;;;5035019;28;20435;-87
2023/01/21 09:05:04;;;;;;;19.43;14.30;;;;;;;;;;5036030;28;20432;-88
2023/01/21 09:07:30;;;;;;;18.77;13.27;;;;;;;;;;5036625;28;21265;-89
2023/01/21 09:09:57;;;;;;;19.50;13.67;;;;;;;;;;5035850;28;20781;-88
2023/01/21 09:12:23;;;;;;;20.80;14.63;;;;;;;;;;5036331;28;20429;-87
2023/01/21 09:14:49;;;;;;;20.97;14.93;;;;;;;;;;5033590;28;20432;-87
2023/01/21 09:17:15;;;;;;;19.63;14.30;;;;;;;;;;5039140;28;20476;-88
2023/01/21 09:19:41;;;;;;;19.53;14.20;;;;;;;;;;5037091;28;20408;-89
2023/01/21 09:22:08;;;;;;;22.17;14.47;;;;;;;;;;5036399;28;20417;-89
2023/01/21 09:24:34;;;;;;;23.53;14.87;;;;;;;;;;5023919;28;20956;-87
2023/01/21 09:27:00;;;;;;;19.07;13.63;;;;;;;;;;5034651;28;20480;-87
2023/01/21 09:29:26;;;;;;;22.70;14.80;;;;;;;;;;5036167;28;20447;-88
2023/01/21 09:31:52;;;;;;;23.43;15.07;;;;;;;;;;5033605;28;20434;-87
2023/01/21 09:34:18;;;;;;;21.83;15.03;;;;;;;;;;5046503;28;20420;-89
2023/01/21 09:36:44;;;;;;;20.90;14.73;;;;;;;;;;5035393;28;20433;-88
2023/01/21 09:39:10;;;;;;;22.63;15.27;;;;;;;;;;5035832;28;20401;-88
2023/01/21 09:41:37;;;;;;;22.23;15.23;;;;;;;;;;5034770;28;20455;-88
2023/01/21 09:44:06;;;;;;;24.23;15.43;;;;;;;;;;5070489;28;20412;-88
2023/01/21 09:46:41;;;;;;;24.77;14.77;;;;;;;;;;5036124;28;20424;-87
2023/01/21 09:49:11;;;;;;;22.27;14.53;;;;;;;;;;5035993;28;20427;-87
2023/01/21 09:51:37;;;;;;;19.43;14.17;;;;;;;;;;5036359;28;20557;-88
2023/01/21 09:54:05;;;;;;;25.00;16.33;;;;;;;;;;5031114;28;20460;-89
2023/01/21 09:56:35;;;;;;;24.80;14.67;;;;;;;;;;5032719;28;20765;-89
2023/01/21 09:59:10;;;;;;;21.63;14.63;;;;;;;;;;5034831;28;20483;-88
2023/01/21 10:01:38;;;;;;;20.13;13.83;;;;;;;;;;5023622;28;20429;-87
2023/01/21 10:04:23;;;;;;;21.00;13.90;;;;;;;;;;5036029;28;20498;-88
2023/01/21 10:07:08;;;;;;;23.30;14.90;;;;;;;;;;5032450;28;20476;-88
2023/01/21 10:09:49;;;;;;;21.87;15.50;;;;;;;;;;5033155;28;20443;-87
2023/01/21 10:12:15;;;;;;;20.17;14.07;;;;;;;;;;5033569;28;20667;-88
2023/01/21 10:14:47;;;;;;;24.13;14.40;;;;;;;;;;5034912;28;20462;-88
2023/01/21 10:17:33;;;;;;;22.40;14.40;;;;;;;;;;5033024;28;20459;-87
2023/01/21 10:20:14;;;;;;;22.87;15.73;;;;;;;;;;5035612;28;20892;-87
2023/01/21 10:22:44;;;;;;;22.50;15.80;;;;;;;;;;5028855;28;21009;-89
2023/01/21 10:25:46;;;;;;;24.60;16.50;;;;;;;;;;5032454;28;20464;-87
2023/01/21 10:28:23;;;;;;;25.57;16.27;;;;;;;;;;4971948;28;20445;-87
2023/01/21 10:30:50;;;;;;;22.20;15.40;;;;;;;;;;5025462;28;20467;-88
2023/01/21 10:33:21;;;;;;;21.00;14.13;;;;;;;;;;5033197;28;20494;-87
2023/01/21 10:35:53;;;;;;;21.07;14.57;;;;;;;;;;5033492;28;20439;-87
2023/01/21 10:38:24;;;;;;;22.87;15.43;;;;;;;;;;5028358;28;20488;-88
2023/01/21 10:40:58;;;;;;;26.07;14.63;;;;;;;;;;5032986;28;20423;-87
2023/01/21 10:43:24;;;;;;;24.53;15.63;;;;;;;;;;5033687;28;20424;-87
2023/01/21 10:46:09;;;;;;;24.63;16.00;;;;;;;;;;5033003;28;20432;-88
2023/01/21 10:48:45;;;;;;;21.90;13.97;;;;;;;;;;5032404;28;20432;-89
2023/01/21 10:51:30;;;;;;;20.23;14.90;;;;;;;;;;5033096;28;20498;-88
2023/01/21 10:54:09;;;;;;;20.50;14.47;;;;;;;;;;5026799;28;20882;-89
2023/01/21 10:56:41;;;;;;;23.90;15.27;;;;;;;;;;5029260;28;20515;-88
2023/01/21 10:59:13;;;;;;;24.43;16.30;;;;;;;;;;5032872;28;20492;-89
2023/01/21 11:01:40;;;;;;;24.83;15.60;;;;;;;;;;5031366;28;21075;-87
2023/01/21 11:04:12;;;;;;;22.63;14.53;;;;;;;;;;5029190;28;21093;-87
2023/01/21 11:06:39;;;;;;;23.83;14.97;;;;;;;;;;5028008;28;20543;-88
2023/01/21 11:09:06;;;;;;;21.90;14.60;;;;;;;;;;5030534;28;20478;-89
2023/01/21 11:11:34;;;;;;;25.57;16.20;;;;;;;;;;5010490;28;20881;-90
2023/01/21 11:14:00;;;;;;;27.90;16.43;;;;;;;;;;5032049;28;20417;-90
2023/01/21 11:16:34;;;;;;;26.97;17.20;;;;;;;;;;5030654;28;20429;-91
2023/01/21 11:19:01;;;;;;;25.63;15.97;;;;;;;;;;5039117;28;20452;-90
2023/01/21 11:21:27;;;;;;;23.13;15.47;;;;;;;;;;5038700;28;20419;-90
2023/01/21 11:23:54;;;;;;;22.10;14.03;;;;;;;;;;5037596;28;20444;-92
2023/01/21 11:26:28;;;;;;;26.17;16.50;;;;;;;;;;5036722;28;21316;-89
2023/01/21 11:29:09;;;;;;;25.53;16.47;;;;;;;;;;5040060;28;20512;-90
2023/01/21 11:31:36;;;;;;;25.23;15.97;;;;;;;;;;5038248;28;20478;-90
2023/01/21 11:34:14;;;;;;;28.13;16.37;;;;;;;;;;5037674;28;20467;-89
2023/01/21 11:37:13;;;;;;;21.77;14.93;;;;;;;;;;5038986;28;20832;-90
2023/01/21 11:39:47;;;;;;;22.20;14.77;;;;;;;;;;5016644;28;20451;-91
2023/01/21 11:42:14;;;;;;;22.57;16.20;;;;;;;;;;5037427;28;20463;-90
2023/01/21 11:44:51;;;;;;;24.23;15.37;;;;;;;;;;5036400;28;20943;-91
2023/01/21 11:47:37;;;;;;;25.10;14.53;;;;;;;;;;5037006;28;20434;-90
2023/01/21 11:50:10;;;;;;;22.07;14.40;;;;;;;;;;5036334;28;21241;-90
2023/01/21 11:52:36;;;;;;;27.67;16.57;;;;;;;;;;5037535;28;20446;-90
2023/01/21 11:55:02;;;;;;;20.33;14.17;;;;;;;;;;5040442;28;20432;-90
2023/01/21 11:57:30;;;;;;;23.97;15.27;;;;;;;;;;5032357;28;20461;-91
2023/01/21 12:00:06;;;;;;;23.87;14.27;;;;;;;;;;5038147;28;20428;-91
2023/01/21 12:02:35;;;;;;;21.33;14.27;;;;;;;;;;5037191;28;21060;-90
2023/01/21 12:05:04;;;;;;;22.30;15.13;;;;;;;;;;5036069;28;20433;-91
2023/01/21 12:07:35;;;;;;;22.93;13.93;;;;;;;;;;5038319;28;20452;-90
2023/01/21 12:10:13;;;;;;;24.90;15.37;;;;;;;;;;5037307;28;20455;-91
2023/01/21 12:12:39;;;;;;;23.57;15.53;;;;;;;;;;5034490;28;20939;-90
2023/01/21 12:15:17;;;;;;;24.63;14.60;;;;;;;;;;5029405;28;20463;-90
2023/01/21 12:17:54;;;;;;;24.93;16.17;;;;;;;;;;5043493;28;20453;-90
2023/01/21 12:20:24;;;;;;;23.70;14.20;;;;;;;;;;5032722;28;20432;-90
2023/01/21 12:22:50;;;;;;;21.40;15.23;;;;;;;;;;5045960;28;20417;-91
2023/01/21 12:25:21;;;;;;;24.13;15.53;;;;;;;;;;5047267;28;20657;-92
2023/01/21 12:28:10;;;;;;;22.30;14.40;;;;;;;;;;5028716;28;20185;-91
2023/01/21 12:30:47;;;;;;;20.57;14.27;;;;;;;;;;5038704;28;20450;-91
2023/01/21 12:33:18;;;;;;;19.90;14.03;;;;;;;;;;5030279;28;20436;-91
2023/01/21 12:36:07;;;;;;;23.43;14.53;;;;;;;;;;5032149;28;20471;-90
2023/01/21 12:38:46;;;;;;;22.43;13.80;;;;;;;;;;5034207;28;20461;-91
2023/01/21 12:41:18;;;;;;;21.20;14.27;;;;;;;;;;5032315;28;20452;-92
2023/01/21 12:43:49;;;;;;;23.20;14.70;;;;;;;;;;5045921;28;20492;-91
2023/01/21 12:46:31;;;;;;;25.38;16.70;;;;;;;;;;5023718;28;20992;-92
2023/01/21 12:49:01;;;;;;;20.33;14.63;;;;;;;;;;5028678;28;20194;-90
2023/01/21 12:51:28;;;;;;;20.83;13.77;;;;;;;;;;5030597;28;20452;-90
2023/01/21 12:54:04;;;;;;;20.53;13.60;;;;;;;;;;5046170;28;20528;-91
2023/01/21 12:56:53;;;;;;;20.13;13.63;;;;;;;;;;5039846;28;20939;-91
2023/01/21 12:59:23;;;;;;;21.40;13.50;;;;;;;;;;5020943;28;20446;-91
2023/01/21 13:02:01;;;;;;;19.63;12.63;;;;;;;;;;5043942;28;20428;-91
2023/01/21 13:04:33;;;;;;;21.40;13.47;;;;;;;;;;5022816;28;20488;-91
2023/01/21 13:07:12;;;;;;;17.70;12.40;;;;;;;;;;5029563;28;20464;-92
2023/01/21 13:10:00;;;;;;;18.97;13.27;;;;;;;;;;5030615;28;20474;-91
2023/01/21 13:12:28;;;;;;;17.57;12.67;;;;;;;;;;5034894;28;20426;-90
2023/01/21 13:15:00;;;;;;;24.07;14.43;;;;;;;;;;5028407;28;20488;-91
2023/01/21 13:17:29;;;;;;;20.63;12.93;;;;;;;;;;5042834;28;20480;-90
2023/01/21 13:19:55;;;;;;;21.40;13.83;;;;;;;;;;5046732;28;20517;-90
2023/01/21 13:22:40;;;;;;;19.10;12.70;;;;;;;;;;5031996;28;20791;-89
2023/01/21 13:25:09;;;;;;;19.73;12.97;;;;;;;;;;5021176;28;20439;-87
2023/01/21 13:27:59;;;;;;;18.40;13.17;;;;;;;;;;5029137;28;20489;-88
2023/01/21 13:30:28;;;;;;;20.07;14.47;;;;;;;;;;5023665;28;20877;-89
2023/01/21 13:33:01;;;;;;;18.03;13.10;;;;;;;;;;5033139;28;20942;-88
2023/01/21 13:35:43;;;;;;;19.40;12.83;;;;;;;;;;5034854;28;20443;-88
2023/01/21 13:38:18;;;;;;;17.60;11.33;;;;;;;;;;5032327;28;20487;-89
2023/01/21 13:40:57;;;;;;;17.60;12.17;;;;;;;;;;5032436;28;20440;-88
2023/01/21 13:43:32;;;;;;;19.27;12.23;;;;;;;;;;5032925;28;20424;-89
2023/01/21 13:46:04;;;;;;;15.90;11.60;;;;;;;;;;5024944;28;20519;-89
2023/01/21 13:48:33;;;;;;;19.40;12.53;;;;;;;;;;5033155;28;21380;-89
2023/01/21 13:51:07;;;;;;;18.60;13.17;;;;;;;;;;5049980;28;20498;-91
2023/01/21 13:53:52;;;;;;;19.00;12.43;;;;;;;;;;5037711;28;20510;-91
2023/01/21 13:56:30;;;;;;;17.47;12.23;;;;;;;;;;5030586;28;20522;-91
2023/01/21 13:58:58;;;;;;;17.30;11.07;;;;;;;;;;5031950;28;20463;-90
2023/01/21 14:01:32;;;;;;;20.80;13.13;;;;;;;;;;5030013;28;20519;-90
2023/01/21 14:04:04;;;;;;;17.87;10.87;;;;;;;;;;5029957;28;20432;-91
2023/01/21 14:06:34;;;;;;;18.80;12.30;;;;;;;;;;5030120;28;20490;-90
2023/01/21 14:09:05;;;;;;;19.63;12.70;;;;;;;;;;5032378;28;20973;-91
2023/01/21 14:11:34;;;;;;;19.10;12.60;;;;;;;;;;5032210;28;20444;-90
2023/01/21 14:14:20;;;;;;;20.30;12.83;;;;;;;;;;5032234;28;20480;-91
2023/01/21 14:17:01;;;;;;;15.93;11.37;;;;;;;;;;5044759;28;20427;-91
2023/01/21 14:19:49;;;;;;;15.10;11.23;;;;;;;;;;5031977;28;20528;-92
2023/01/21 14:22:15;;;;;;;14.30;11.37;;;;;;;;;;5046218;28;20447;-90
2023/01/21 14:25:00;;;;;;;15.87;9.87;;;;;;;;;;5031762;28;20825;-91
2023/01/21 14:27:41;;;;;;;14.50;10.63;;;;;;;;;;5029921;28;20468;-90
2023/01/21 14:30:23;;;;;;;14.10;10.20;;;;;;;;;;5030558;28;20468;-91
2023/01/21 14:32:51;;;;;;;15.70;11.27;;;;;;;;;;5034107;28;20432;-91
2023/01/21 14:35:17;;;;;;;16.73;11.80;;;;;;;;;;5049695;28;20624;-90